Time;durP1;ratioP1;P1;durP2;ratioP2;P2;SDS_P1;SDS_P2;PMS_P1;PMS_P2;Temp;Humidity;BMP_temperature;BMP_pressure;BME280_temperature;BME280_humidity;BME280_pressure;Samples;Min_cycle;Max_cycle;Signal;HPM_P1;HPM_P2
2023/03/11 00:06:00;;;;;;;6.95;2.83;;;4.10;99.90;;;;;;20648216;28;20038;-79
2023/03/11 00:16:02;;;;;;;6.40;2.38;;;4.00;99.90;;;;;;20605554;28;20105;-78
2023/03/11 00:26:02;;;;;;;5.15;2.95;;;4.00;99.90;;;;;;20623760;28;20501;-79
2023/03/11 00:36:05;;;;;;;7.65;3.50;;;3.90;99.90;;;;;;20684534;28;20030;-78
2023/03/11 00:46:06;;;;;;;5.97;3.00;;;3.70;99.90;;;;;;20694260;28;20470;-79
2023/03/11 00:56:09;;;;;;;5.35;3.33;;;3.60;99.90;;;;;;20693944;28;20031;-80
2023/03/11 01:06:12;;;;;;;7.18;3.83;;;3.50;99.90;;;;;;20599091;28;20109;-79
2023/03/11 01:16:13;;;;;;;8.38;4.40;;;3.30;99.90;;;;;;20611776;28;20031;-80
2023/03/11 01:26:14;;;;;;;10.32;5.25;;;3.20;99.90;;;;;;20654836;28;20081;-80
2023/03/11 01:36:15;;;;;;;9.52;4.60;;;3.00;99.90;;;;;;20652702;28;20085;-80
2023/03/11 01:46:21;;;;;;;10.00;5.25;;;3.00;99.90;;;;;;20638305;28;20054;-78
2023/03/11 01:56:23;;;;;;;12.02;5.45;;;2.80;99.90;;;;;;20658168;28;20045;-79
2023/03/11 02:06:24;;;;;;;9.30;5.47;;;2.70;99.90;;;;;;20614884;28;20035;-81
2023/03/11 02:16:26;;;;;;;10.02;4.90;;;2.70;99.90;;;;;;20633175;28;20027;-80
2023/03/11 02:26:50;;;;;;;9.52;4.78;;;2.60;99.90;;;;;;20629438;28;20089;-77
2023/03/11 02:36:51;;;;;;;11.32;4.68;;;2.60;99.90;;;;;;20583393;28;20416;-79
2023/03/11 02:46:54;;;;;;;13.00;5.70;;;2.60;99.90;;;;;;20588531;28;20077;-78
2023/03/11 02:56:56;;;;;;;10.13;5.80;;;2.50;99.90;;;;;;20604425;28;20480;-78
2023/03/11 03:06:57;;;;;;;12.40;6.03;;;2.30;99.90;;;;;;20617331;28;20109;-76
2023/03/11 03:16:58;;;;;;;10.77;6.00;;;2.20;99.90;;;;;;20601090;28;20228;-79
2023/03/11 03:26:58;;;;;;;9.02;5.05;;;2.10;99.90;;;;;;20623605;28;20432;-77
2023/03/11 03:36:59;;;;;;;12.07;6.00;;;2.00;99.90;;;;;;20669979;28;20057;-78
2023/03/11 03:47:00;;;;;;;12.38;6.45;;;2.00;99.90;;;;;;20664286;28;20489;-78
2023/03/11 03:57:02;;;;;;;12.65;5.80;;;1.90;99.90;;;;;;20590751;28;20393;-79
2023/03/11 04:07:05;;;;;;;12.88;5.43;;;2.00;99.90;;;;;;20573719;28;20056;-77
2023/03/11 04:17:10;;;;;;;11.02;5.85;;;2.00;99.90;;;;;;20618700;28;20406;-78
2023/03/11 04:27:11;;;;;;;11.32;5.70;;;1.80;99.90;;;;;;20577896;28;20121;-79
2023/03/11 04:37:13;;;;;;;14.75;5.85;;;1.80;99.90;;;;;;20605182;28;20055;-79
2023/03/11 04:47:16;;;;;;;11.48;5.93;;;1.70;99.90;;;;;;20599939;28;20038;-78
2023/03/11 04:57:18;;;;;;;14.27;6.13;;;1.60;99.90;;;;;;20579393;28;20065;-79
2023/03/11 05:07:19;;;;;;;11.93;6.13;;;1.60;99.90;;;;;;20565035;28;20509;-78
2023/03/11 05:17:21;;;;;;;17.63;6.70;;;1.60;99.90;;;;;;20624462;28;20031;-78
2023/03/11 05:27:24;;;;;;;11.77;6.53;;;1.50;99.90;;;;;;20600555;28;20037;-78
2023/03/11 05:37:31;;;;;;;14.02;7.20;;;1.50;99.90;;;;;;20564749;28;20039;-78
2023/03/11 05:47:33;;;;;;;15.60;7.15;;;1.50;99.90;;;;;;20601954;28;20031;-77
2023/03/11 05:57:34;;;;;;;19.08;8.13;;;1.30;99.90;;;;;;20623392;28;20142;-77
2023/03/11 06:07:36;;;;;;;23.70;8.10;;;1.30;99.90;;;;;;20656180;28;20031;-77
2023/03/11 06:17:38;;;;;;;15.57;6.30;;;1.30;99.90;;;;;;20635347;28;20034;-77
2023/03/11 06:27:39;;;;;;;14.43;7.20;;;1.20;99.90;;;;;;20592893;28;20030;-77
2023/03/11 06:37:41;;;;;;;11.65;5.95;;;1.20;99.90;;;;;;20595839;28;20446;-78
2023/03/11 06:47:42;;;;;;;11.15;5.80;;;1.30;99.90;;;;;;20643482;28;20023;-80
2023/03/11 06:57:44;;;;;;;11.13;5.75;;;1.40;99.90;;;;;;20621500;28;20034;-79
2023/03/11 07:07:46;;;;;;;13.50;6.15;;;1.40;99.90;;;;;;20684431;28;20034;-79
2023/03/11 07:17:48;;;;;;;17.25;6.85;;;1.30;99.90;;;;;;20676337;28;20034;-79
2023/03/11 07:27:49;;;;;;;15.05;6.53;;;1.30;99.90;;;;;;20607850;28;20062;-80
2023/03/11 07:37:50;;;;;;;12.57;5.30;;;1.60;99.90;;;;;;20558400;28;20031;-80
2023/03/11 07:47:51;;;;;;;12.60;5.63;;;1.60;99.90;;;;;;20583911;28;20031;-80
2023/03/11 07:57:52;;;;;;;13.52;5.60;;;1.60;99.90;;;;;;20537827;28;20617;-82
2023/03/11 08:07:53;;;;;;;13.90;6.15;;;1.70;99.90;;;;;;20525952;28;20438;-81
2023/03/11 08:17:53;;;;;;;11.43;5.30;;;1.60;99.90;;;;;;20559520;28;20030;-80
2023/03/11 08:27:55;;;;;;;10.30;4.75;;;1.90;99.90;;;;;;20676765;28;20030;-81
2023/03/11 08:37:55;;;;;;;7.65;4.35;;;1.80;99.90;;;;;;20676630;28;20512;-80
2023/03/11 08:47:56;;;;;;;9.18;4.65;;;1.70;99.90;;;;;;20609595;28;20031;-81
2023/03/11 08:57:57;;;;;;;8.60;3.97;;;1.70;99.90;;;;;;20689775;28;20038;-80
2023/03/11 09:07:58;;;;;;;11.93;5.68;;;1.70;99.90;;;;;;20675429;28;20445;-80
2023/03/11 09:17:59;;;;;;;17.92;5.38;;;1.90;99.90;;;;;;20656299;28;20045;-79
2023/03/11 09:27:59;;;;;;;6.30;3.30;;;2.10;99.90;;;;;;20632791;28;20461;-78
2023/03/11 09:38:00;;;;;;;5.07;2.22;;;2.10;99.90;;;;;;20697422;28;20101;-79
2023/03/11 09:48:01;;;;;;;6.68;2.00;;;2.50;99.90;;;;;;20649965;28;20034;-79
2023/03/11 09:58:16;;;;;;;3.77;1.80;;;2.90;99.90;;;;;;20703854;28;20054;-79
2023/03/11 10:08:33;;;;;;;5.50;2.15;;;3.00;99.90;;;;;;20643400;28;20733;-77
2023/03/11 10:18:48;;;;;;;3.85;1.73;;;3.00;99.90;;;;;;20642928;28;20440;-79
2023/03/11 10:28:57;;;;;;;3.55;2.00;;;3.60;99.90;;;;;;20698437;28;20126;-79
2023/03/11 10:38:59;;;;;;;4.30;1.85;;;3.70;99.90;;;;;;20688384;28;20062;-78
2023/03/11 10:49:00;;;;;;;4.45;2.50;;;4.50;99.90;;;;;;20676172;28;20027;-79
2023/03/11 10:59:04;;;;;;;4.07;2.90;;;4.50;99.90;;;;;;20551328;29;20037;-78
2023/03/11 11:09:15;;;;;;;4.20;2.50;;;4.90;99.90;;;;;;20552359;29;20039;-79
2023/03/11 11:19:17;;;;;;;4.15;2.47;;;4.00;99.90;;;;;;20649744;28;20094;-80
2023/03/11 11:29:18;;;;;;;5.85;2.80;;;4.70;99.90;;;;;;20704473;28;20068;-79
2023/03/11 11:39:20;;;;;;;;;;;5.10;99.90;;;;;;20689991;28;20397;-79
2023/03/11 11:49:33;;;;;;;3.67;2.65;;;5.00;99.90;;;;;;20594456;28;19917;-79
2023/03/11 11:59:34;;;;;;;3.40;2.53;;;4.90;99.90;;;;;;20580284;28;20536;-80
2023/03/11 12:09:50;;;;;;;;;;;4.80;99.90;;;;;;20597121;28;20086;-78
2023/03/11 12:20:04;;;;;;;3.17;1.75;;;5.10;99.90;;;;;;20640810;28;19920;-80
2023/03/11 12:30:26;;;;;;;3.97;2.65;;;5.40;99.90;;;;;;20616330;28;20031;-79
2023/03/11 12:40:41;;;;;;;5.32;2.10;;;5.30;99.90;;;;;;20600368;28;20089;-79
2023/03/11 12:50:42;;;;;;;3.35;2.03;;;5.60;99.90;;;;;;20646987;28;20026;-78
2023/03/11 13:00:50;;;;;;;3.60;2.20;;;4.90;99.90;;;;;;20664136;28;20058;-78
2023/03/11 13:10:53;;;;;;;3.58;2.30;;;4.70;99.90;;;;;;20603635;28;20031;-78
2023/03/11 13:21:00;;;;;;;2.75;2.13;;;4.60;99.90;;;;;;20583181;28;20075;-77
2023/03/11 13:31:14;;;;;;;8.05;3.38;;;4.70;99.90;;;;;;20582308;28;20062;-77
2023/03/11 13:41:35;;;;;;;3.78;2.70;;;4.60;99.90;;;;;;20581887;28;20130;-77
2023/03/11 13:51:39;;;;;;;;;;;4.60;99.90;;;;;;20633351;28;20026;-77
2023/03/11 14:01:46;;;;;;;12.02;5.22;;;4.80;99.90;;;;;;20662087;28;20384;-77
2023/03/11 14:11:47;;;;;;;5.13;3.63;;;4.70;99.90;;;;;;20601492;28;20093;-76
2023/03/11 14:21:54;;;;;;;4.88;3.08;;;4.90;99.90;;;;;;20602411;28;20026;-76
2023/03/11 14:31:54;;;;;;;5.93;2.88;;;5.10;99.90;;;;;;20593579;28;20042;-77
2023/03/11 14:42:17;;;;;;;4.18;1.98;;;5.30;99.90;;;;;;20571374;28;20042;-77
2023/03/11 14:52:38;;;;;;;3.33;2.00;;;5.10;99.90;;;;;;20584752;28;20509;-76
2023/03/11 15:02:58;;;;;;;1.60;1.50;;;5.00;99.90;;;;;;20513937;28;20506;-76
2023/03/11 15:13:14;;;;;;;2.80;1.73;;;4.90;99.90;;;;;;20589100;28;20126;-77
2023/03/11 15:23:20;;;;;;;3.72;2.22;;;5.10;99.90;;;;;;20584227;28;20114;-76
2023/03/11 15:33:30;;;;;;;3.03;1.88;;;5.10;99.90;;;;;;20510199;28;20035;-77
2023/03/11 15:43:47;;;;;;;3.60;1.85;;;4.80;99.90;;;;;;20630518;28;20382;-77
2023/03/11 15:53:48;;;;;;;2.30;1.80;;;4.80;99.90;;;;;;20667187;28;20456;-75
2023/03/11 16:03:49;;;;;;;3.70;1.80;;;4.80;99.90;;;;;;20662429;28;20035;-77
2023/03/11 16:13:49;;;;;;;7.25;2.30;;;4.80;99.90;;;;;;20584925;28;20114;-75
2023/03/11 16:23:50;;;;;;;;;;;5.00;99.90;;;;;;20584824;28;20037;-75
2023/03/11 16:33:51;;;;;;;10.55;2.30;;;5.00;99.90;;;;;;20588049;28;20317;-78
2023/03/11 16:43:52;;;;;;;;;;;4.90;99.90;;;;;;20582641;28;20069;-78
2023/03/11 16:53:53;;;;;;;69.22;25.30;;;5.00;99.90;;;;;;20582477;28;19932;-76
2023/03/11 17:03:53;;;;;;;8.27;4.03;;;5.20;99.90;;;;;;20579752;28;20023;-77
2023/03/11 17:13:54;;;;;;;;;;;5.00;99.90;;;;;;20579583;28;20031;-77
2023/03/11 17:23:57;;;;;;;5.38;2.20;;;4.90;99.90;;;;;;20578423;28;19914;-78
2023/03/11 17:33:58;;;;;;;5.97;2.45;;;4.80;99.90;;;;;;20576106;28;20109;-79
2023/03/11 17:43:59;;;;;;;;;;;4.70;99.90;;;;;;20515241;28;20801;-78
2023/03/11 17:54:00;;;;;;;4.85;3.00;;;4.70;99.90;;;;;;20662022;28;20653;-77
2023/03/11 18:04:00;;;;;;;;;;;4.40;99.90;;;;;;20683752;28;20504;-78
2023/03/11 18:14:01;;;;;;;23.98;6.07;;;4.30;99.90;;;;;;20607617;28;19968;-77
2023/03/11 18:24:02;;;;;;;;;;;4.20;99.90;;;;;;20609006;28;20023;-76
2023/03/11 18:34:06;;;;;;;113.65;38.80;;;4.10;99.90;;;;;;20610564;28;19945;-77
2023/03/11 18:44:07;;;;;;;59.70;24.63;;;3.90;99.90;;;;;;20646405;28;20041;-78
2023/03/11 18:54:09;;;;;;;9.60;5.07;;;3.70;99.90;;;;;;20692654;28;20045;-80
2023/03/11 19:04:09;;;;;;;9.13;4.20;;;3.70;99.90;;;;;;20687929;28;20042;-79
2023/03/11 19:14:11;;;;;;;10.05;5.45;;;3.80;99.90;;;;;;20618957;28;20582;-78
2023/03/11 19:24:13;;;;;;;53.33;22.80;;;3.80;99.90;;;;;;20566173;28;20082;-78
2023/03/11 19:34:14;;;;;;;13.43;5.70;;;3.70;99.90;;;;;;20555929;28;20027;-78
2023/03/11 19:44:14;;;;;;;9.48;4.35;;;3.70;99.90;;;;;;20558814;28;20034;-79
2023/03/11 19:54:16;;;;;;;8.30;5.28;;;3.60;99.90;;;;;;20625607;28;20436;-79
2023/03/11 20:04:16;;;;;;;11.75;6.13;;;3.60;99.90;;;;;;20679851;28;20093;-78
2023/03/11 20:14:17;;;;;;;8.32;5.78;;;3.50;99.90;;;;;;20596199;28;20031;-78
2023/03/11 20:24:18;;;;;;;9.50;6.05;;;3.70;99.90;;;;;;20578856;28;20039;-77
2023/03/11 20:34:19;;;;;;;10.05;5.88;;;3.70;99.90;;;;;;20531667;28;20110;-78
2023/03/11 20:44:19;;;;;;;9.85;5.88;;;3.70;99.90;;;;;;20512760;28;20035;-78
2023/03/11 20:54:20;;;;;;;9.85;5.25;;;3.60;99.90;;;;;;20581931;28;20058;-79
2023/03/11 21:04:23;;;;;;;14.63;6.68;;;3.50;99.90;;;;;;20596347;28;20030;-78
2023/03/11 21:14:24;;;;;;;11.90;6.20;;;3.40;99.90;;;;;;20589546;28;20034;-78
2023/03/11 21:24:24;;;;;;;12.00;6.85;;;3.00;99.90;;;;;;20605362;28;20034;-78
2023/03/11 21:34:25;;;;;;;12.50;6.80;;;3.00;99.90;;;;;;20566171;28;20129;-78
2023/03/11 21:44:26;;;;;;;16.77;7.90;;;3.10;99.90;;;;;;20572985;28;20035;-77
2023/03/11 21:54:27;;;;;;;16.38;8.82;;;3.10;99.90;;;;;;20577372;28;20053;-78
2023/03/11 22:04:29;;;;;;;16.08;8.65;;;2.90;99.90;;;;;;20556666;28;20023;-78
2023/03/11 22:14:30;;;;;;;17.70;8.55;;;2.70;99.90;;;;;;20579663;28;20063;-78
2023/03/11 22:24:31;;;;;;;17.70;9.27;;;2.60;99.90;;;;;;20625415;28;20076;-78
2023/03/11 22:34:32;;;;;;;15.63;8.43;;;2.60;99.90;;;;;;20643617;28;20082;-78
2023/03/11 22:44:33;;;;;;;17.20;9.20;;;2.70;99.90;;;;;;20609172;28;20153;-78
2023/03/11 22:54:36;;;;;;;12.30;7.78;;;2.70;99.90;;;;;;20676598;28;20030;-78
2023/03/11 23:04:36;;;;;;;14.95;7.97;;;2.80;99.90;;;;;;20638391;28;20045;-78
2023/03/11 23:14:37;;;;;;;16.70;8.32;;;2.90;99.90;;;;;;20598872;28;20058;-78
2023/03/11 23:24:38;;;;;;;15.07;8.23;;;2.90;99.90;;;;;;20596045;28;20174;-78
2023/03/11 23:34:39;;;;;;;16.55;7.90;;;2.90;99.90;;;;;;20594931;28;20027;-78
2023/03/11 23:44:39;;;;;;;14.80;8.63;;;3.00;99.90;;;;;;20616168;28;20125;-79
2023/03/11 23:54:40;;;;;;;19.73;9.07;;;3.10;99.90;;;;;;20671334;28;20042;-79
